createdAt,value
2022-08-31T00:03:57.975Z,69.31
2022-08-31T00:09:23.039Z,69.58
2022-08-31T00:14:50.131Z,70.13
2022-08-31T00:20:32.865Z,70.44
2022-08-31T00:25:59.920Z,69.23
2022-08-31T00:31:23.937Z,69.37
2022-08-31T00:36:48.520Z,68.55
2022-08-31T00:42:15.254Z,67.98
2022-08-31T00:47:41.883Z,72.10
2022-08-31T00:53:07.316Z,80.02
2022-08-31T00:58:33.018Z,83.41
2022-08-31T01:03:57.736Z,84.79
2022-08-31T01:09:24.039Z,84.73
2022-08-31T01:14:49.922Z,84.47
2022-08-31T01:20:17.912Z,82.82
2022-08-31T01:25:45.754Z,83.74
2022-08-31T01:31:11.478Z,85.20
2022-08-31T01:36:36.959Z,87.52
2022-08-31T01:42:04.037Z,87.88
2022-08-31T01:47:28.780Z,87.53
2022-08-31T01:52:53.113Z,88.06
2022-08-31T01:58:19.215Z,87.99
2022-08-31T02:04:02.811Z,88.44
2022-08-31T02:09:27.803Z,89.75
2022-08-31T02:14:53.751Z,88.72
2022-08-31T02:20:18.083Z,87.90
2022-08-31T02:25:43.029Z,88.15
2022-08-31T02:31:08.829Z,89.03
2022-08-31T02:36:43.003Z,90.13
2022-08-31T02:42:07.270Z,90.74
2022-08-31T02:47:34.155Z,90.55
2022-08-31T02:53:10.024Z,90.00
2022-08-31T02:58:35.300Z,90.86
2022-08-31T03:04:03.077Z,92.67
2022-08-31T03:09:27.311Z,95.96
2022-08-31T03:14:51.774Z,98.45
2022-08-31T03:20:20.187Z,98.04
2022-08-31T03:25:44.171Z,100.00
2022-08-31T03:31:10.912Z,100.00
2022-08-31T03:36:36.626Z,99.81
2022-08-31T03:42:00.633Z,98.28
2022-08-31T03:47:29.138Z,96.59
2022-08-31T03:52:56.124Z,95.95
2022-08-31T03:58:24.135Z,94.01
2022-08-31T04:03:47.395Z,94.20
2022-08-31T04:09:36.024Z,94.96
2022-08-31T04:15:34.699Z,94.97
2022-08-31T04:21:31.848Z,95.50
2022-08-31T04:27:03.039Z,96.32
2022-08-31T04:32:32.611Z,96.48
2022-08-31T04:37:57.118Z,93.08
2022-08-31T04:43:23.701Z,89.60
2022-08-31T04:48:51.704Z,88.42
2022-08-31T04:54:20.456Z,86.03
2022-08-31T04:59:50.705Z,85.41
2022-08-31T05:05:38.702Z,84.72
2022-08-31T05:11:09.317Z,83.77
2022-08-31T05:16:34.726Z,83.27
2022-08-31T05:22:02.997Z,79.59
2022-08-31T05:27:29.332Z,78.31
2022-08-31T05:32:54.351Z,76.51
2022-08-31T05:38:23.511Z,75.70
2022-08-31T05:43:52.417Z,73.64
2022-08-31T05:49:23.764Z,72.92
2022-08-31T05:54:50.845Z,71.23
2022-08-31T06:00:20.065Z,66.26
2022-08-31T06:05:57.620Z,55.54
2022-08-31T06:11:28.093Z,49.36
2022-08-31T06:16:57.257Z,44.26
2022-08-31T06:22:21.965Z,41.73
2022-08-31T06:27:51.670Z,41.69
2022-08-31T06:33:15.050Z,44.02
2022-08-31T06:39:00.534Z,43.07
2022-08-31T06:44:45.562Z,42.32
2022-08-31T06:50:18.210Z,41.42
2022-08-31T06:55:48.989Z,43.05
2022-08-31T07:01:35.962Z,42.15
2022-08-31T07:07:22.348Z,40.88
2022-08-31T07:12:54.663Z,39.43
2022-08-31T07:18:23.925Z,38.80
2022-08-31T07:23:50.476Z,40.86
2022-08-31T07:29:18.628Z,40.37
2022-08-31T07:34:44.151Z,39.26
2022-08-31T07:40:55.502Z,39.97
2022-08-31T07:46:24.071Z,40.52
2022-08-31T07:51:50.446Z,42.76
2022-08-31T07:57:30.245Z,40.20
2022-08-31T08:03:08.128Z,38.23
2022-08-31T08:09:24.079Z,38.01
2022-08-31T08:15:11.809Z,35.52
2022-08-31T08:20:55.753Z,34.46
2022-08-31T08:26:25.245Z,32.82
2022-08-31T08:32:15.486Z,33.01
2022-08-31T08:37:57.908Z,32.40
2022-08-31T08:43:32.126Z,31.96
2022-08-31T08:49:05.016Z,31.65
2022-08-31T08:54:38.009Z,32.72
2022-08-31T09:00:17.341Z,31.87
2022-08-31T09:05:56.513Z,31.49
2022-08-31T09:11:46.809Z,28.60
2022-08-31T09:17:18.791Z,28.87
2022-08-31T09:22:47.192Z,29.02
2022-08-31T09:28:34.000Z,29.49
2022-08-31T09:34:00.129Z,32.00
2022-08-31T09:39:33.007Z,31.49
2022-08-31T09:45:14.197Z,30.91
2022-08-31T09:50:46.291Z,31.40
2022-08-31T09:56:14.441Z,31.28
2022-08-31T10:01:45.979Z,31.13
2022-08-31T10:07:18.460Z,30.64
2022-08-31T10:12:44.561Z,29.83
2022-08-31T10:18:14.287Z,30.00
2022-08-31T10:23:38.978Z,31.03
2022-08-31T10:29:09.544Z,31.21
2022-08-31T10:34:59.120Z,30.21
2022-08-31T10:40:28.526Z,28.78
2022-08-31T10:45:53.327Z,30.89
2022-08-31T10:51:27.220Z,30.24
2022-08-31T10:57:00.809Z,29.71
2022-08-31T11:02:37.113Z,31.58
2022-08-31T11:08:07.426Z,31.24
2022-08-31T11:13:42.332Z,31.58
2022-08-31T11:19:32.535Z,29.90
2022-08-31T11:25:19.662Z,26.53
2022-08-31T11:30:51.292Z,27.20
2022-08-31T11:36:32.516Z,29.72
2022-08-31T11:42:01.758Z,32.13
2022-08-31T11:47:44.480Z,32.03
2022-08-31T11:53:20.935Z,30.50
2022-08-31T11:58:49.603Z,30.63
2022-08-31T12:04:32.178Z,30.69
2022-08-31T12:10:27.564Z,30.89
2022-08-31T12:16:00.781Z,31.71
2022-08-31T12:21:44.450Z,33.53
2022-08-31T12:27:25.061Z,34.04
2022-08-31T12:32:59.279Z,33.59
2022-08-31T12:38:28.239Z,33.52
2022-08-31T12:43:58.718Z,32.86
2022-08-31T12:49:48.778Z,31.89
2022-08-31T12:55:33.450Z,32.10
2022-08-31T13:01:09.308Z,32.33
2022-08-31T13:06:41.037Z,32.46
2022-08-31T13:12:04.492Z,32.84
2022-08-31T13:17:37.864Z,32.51
2022-08-31T13:23:02.765Z,32.76
2022-08-31T13:28:31.317Z,32.34
2022-08-31T13:34:02.937Z,33.02
2022-08-31T13:39:27.718Z,33.81
2022-08-31T13:44:56.314Z,34.14
2022-08-31T13:50:27.986Z,34.85
2022-08-31T13:55:57.684Z,33.84
2022-08-31T14:01:27.101Z,33.77
2022-08-31T14:06:52.452Z,34.68
2022-08-31T14:12:34.985Z,35.83
2022-08-31T14:18:24.448Z,35.19
2022-08-31T14:24:01.428Z,35.42
2022-08-31T14:29:30.010Z,35.63
2022-08-31T14:34:55.030Z,36.17
2022-08-31T14:40:24.802Z,36.31
2022-08-31T14:45:54.623Z,36.21
2022-08-31T14:51:24.056Z,35.71
2022-08-31T14:56:50.592Z,36.34
2022-08-31T15:02:21.657Z,36.73
2022-08-31T15:07:51.231Z,37.42
2022-08-31T15:13:16.989Z,37.66
2022-08-31T15:18:46.770Z,37.83
2022-08-31T15:24:12.084Z,38.68
2022-08-31T15:29:43.344Z,38.99
2022-08-31T15:35:18.069Z,39.40
2022-08-31T15:40:43.112Z,39.75
2022-08-31T15:46:14.879Z,40.46
2022-08-31T15:51:46.917Z,40.95
2022-08-31T15:57:12.223Z,40.49
2022-08-31T16:02:37.590Z,40.97
2022-08-31T16:08:07.022Z,40.13
2022-08-31T16:13:33.783Z,39.96
2022-08-31T16:18:58.361Z,40.66
2022-08-31T16:24:25.813Z,41.59
2022-08-31T16:29:54.384Z,41.43
2022-08-31T16:35:24.782Z,41.90
2022-08-31T16:40:53.553Z,42.60
2022-08-31T16:46:39.986Z,42.81
2022-08-31T16:52:11.125Z,43.71
2022-08-31T16:57:34.703Z,43.60
2022-08-31T17:03:01.812Z,44.41
2022-08-31T17:08:27.015Z,45.01
2022-08-31T17:13:59.186Z,44.99
2022-08-31T17:19:24.128Z,45.24
2022-08-31T17:24:52.199Z,45.15
2022-08-31T17:30:17.506Z,45.93
2022-08-31T17:35:46.398Z,46.02
2022-08-31T17:41:16.593Z,46.57
2022-08-31T17:46:42.596Z,47.09
2022-08-31T17:52:12.293Z,47.37
2022-08-31T17:57:42.661Z,47.10
2022-08-31T18:03:06.429Z,47.98
2022-08-31T18:08:36.134Z,48.20
2022-08-31T18:14:00.721Z,48.12
2022-08-31T18:19:29.814Z,48.76
2022-08-31T18:24:58.247Z,48.96
2022-08-31T18:30:28.797Z,49.53
2022-08-31T18:35:58.072Z,49.88
2022-08-31T18:41:45.500Z,50.63
2022-08-31T18:47:16.785Z,50.93
2022-08-31T18:52:46.701Z,50.56
2022-08-31T18:58:15.265Z,51.28
2022-08-31T19:03:41.322Z,51.55
2022-08-31T19:09:08.076Z,52.43
2022-08-31T19:14:38.353Z,52.34
2022-08-31T19:20:04.906Z,52.36
2022-08-31T19:25:29.028Z,53.47
2022-08-31T19:30:52.576Z,53.83
2022-08-31T19:36:22.563Z,55.03
2022-08-31T19:41:52.748Z,54.48
2022-08-31T19:47:31.212Z,54.70
2022-08-31T19:52:56.042Z,55.54
2022-08-31T19:58:20.006Z,55.76
2022-08-31T20:03:43.048Z,56.08
2022-08-31T20:09:13.850Z,55.60
2022-08-31T20:14:42.082Z,55.39
2022-08-31T20:20:12.223Z,57.04
2022-08-31T20:25:42.813Z,57.58
2022-08-31T20:31:07.788Z,56.19
2022-08-31T20:36:38.168Z,56.14
2022-08-31T20:42:06.430Z,56.21
2022-08-31T20:47:47.255Z,56.36
2022-08-31T20:53:14.571Z,56.62
2022-08-31T20:58:43.377Z,56.14
2022-08-31T21:04:12.386Z,56.46
2022-08-31T21:09:41.394Z,56.67
2022-08-31T21:15:10.329Z,55.81
2022-08-31T21:20:35.307Z,55.95
2022-08-31T21:26:04.460Z,55.99
2022-08-31T21:31:31.194Z,56.13
2022-08-31T21:37:00.003Z,56.80
2022-08-31T21:42:26.602Z,57.11
2022-08-31T21:47:56.384Z,57.06
2022-08-31T21:53:27.271Z,57.56
2022-08-31T21:58:53.715Z,57.22
2022-08-31T22:04:21.400Z,57.70
2022-08-31T22:09:46.788Z,57.97
2022-08-31T22:15:17.224Z,58.27
2022-08-31T22:20:43.326Z,58.12
2022-08-31T22:26:12.626Z,58.18
2022-08-31T22:31:41.437Z,59.50
2022-08-31T22:37:06.487Z,60.55
2022-08-31T22:42:31.043Z,60.93
2022-08-31T22:47:59.909Z,61.52
2022-08-31T22:53:29.496Z,61.56
2022-08-31T22:58:57.000Z,62.60
2022-08-31T23:04:28.968Z,62.10
2022-08-31T23:09:54.610Z,62.45
2022-08-31T23:15:17.436Z,62.92
2022-08-31T23:20:42.029Z,63.55
2022-08-31T23:26:09.565Z,64.51
2022-08-31T23:31:36.989Z,64.96
2022-08-31T23:37:08.710Z,65.80
2022-08-31T23:42:41.300Z,66.52
2022-08-31T23:48:06.348Z,66.71
2022-08-31T23:53:35.134Z,67.49
2022-08-31T23:59:10.423Z,67.74
